Hana Airport Hana US
ICAO: PHHN
IATA:
Category: Medium
Scheduled Services:

Elevation: 78 ft
TransAlt. 0 ft.

Airport Communications:
HONOLULU CNTR:126
CTAF:122.9
HANA:122.3
HANA:122.3
HONOLULU RDO:122.3

PHHN Zoom In..

Runways:

(A) RW 08 length 3606 ft width 100 ft
---- / hdg 79

(B) RW 26 length 3606 ft width 100 ft
---- / hdg 259

Location; PHHN
Day. 08 / Time. 17.45 Zulu
* Altimeter: 30.12
* Temperature: 24° c. 75.2°f.
* Wind from: VRB° Speed 04 kn.
Dewpoint: 23° c.
Visibility: 5 Statute Miles.
Clouds: Few 1600 ft.
Clouds: Scattered 2200 ft.
Clouds: Broken 2800 ft.
Conditions: Mist.

PHHN 081745Z VRB04KT 5SM BR FEW016 SCT022 BKN028 24/23 A3012

Going to: --> -->


Wind From VRB°
Speed 04 kn.

 
 
jpsmedia worldairports.se 2020   terms of use